sensor_id;sensor_type;location;lat;lon;timestamp;P1;durP1;ratioP1;P2;durP2;ratioP2
30398;SDS011;17195;50.838;7.214;2022-09-09T00:00:39;5.45;;;0.80;;
30398;SDS011;17195;50.838;7.214;2022-09-09T00:11:31;4.93;;;0.68;;
30398;SDS011;17195;50.838;7.214;2022-09-09T00:19:36;4.25;;;0.80;;
30398;SDS011;17195;50.838;7.214;2022-09-09T00:22:16;3.70;;;0.90;;
30398;SDS011;17195;50.838;7.214;2022-09-09T00:24:48;2.38;;;0.73;;
30398;SDS011;17195;50.838;7.214;2022-09-09T00:32:39;2.25;;;0.77;;
30398;SDS011;17195;50.838;7.214;2022-09-09T00:35:27;1.60;;;0.57;;
30398;SDS011;17195;50.838;7.214;2022-09-09T00:37:55;1.42;;;0.60;;
30398;SDS011;17195;50.838;7.214;2022-09-09T00:40:27;4.70;;;1.20;;
30398;SDS011;17195;50.838;7.214;2022-09-09T00:45:42;1.73;;;0.60;;
30398;SDS011;17195;50.838;7.214;2022-09-09T00:48:27;2.17;;;0.60;;
30398;SDS011;17195;50.838;7.214;2022-09-09T00:51:07;2.90;;;0.90;;
30398;SDS011;17195;50.838;7.214;2022-09-09T00:56:37;1.90;;;0.60;;
30398;SDS011;17195;50.838;7.214;2022-09-09T00:59:16;1.75;;;0.63;;
30398;SDS011;17195;50.838;7.214;2022-09-09T01:04:48;2.47;;;0.73;;
30398;SDS011;17195;50.838;7.214;2022-09-09T01:07:16;2.55;;;0.90;;
30398;SDS011;17195;50.838;7.214;2022-09-09T01:09:54;3.05;;;1.00;;
30398;SDS011;17195;50.838;7.214;2022-09-09T01:12:41;4.22;;;1.02;;
30398;SDS011;17195;50.838;7.214;2022-09-09T01:15:19;2.80;;;1.00;;
30398;SDS011;17195;50.838;7.214;2022-09-09T01:18:04;6.38;;;1.20;;
30398;SDS011;17195;50.838;7.214;2022-09-09T01:26:28;3.80;;;0.80;;
30398;SDS011;17195;50.838;7.214;2022-09-09T01:28:58;2.60;;;0.77;;
30398;SDS011;17195;50.838;7.214;2022-09-09T01:31:41;2.08;;;0.65;;
30398;SDS011;17195;50.838;7.214;2022-09-09T01:34:16;3.72;;;0.80;;
30398;SDS011;17195;50.838;7.214;2022-09-09T01:39:07;1.83;;;0.60;;
30398;SDS011;17195;50.838;7.214;2022-09-09T01:41:33;2.60;;;0.90;;
30398;SDS011;17195;50.838;7.214;2022-09-09T01:43:58;3.60;;;0.88;;
30398;SDS011;17195;50.838;7.214;2022-09-09T01:46:24;2.10;;;0.90;;
30398;SDS011;17195;50.838;7.214;2022-09-09T01:48:51;2.92;;;0.90;;
30398;SDS011;17195;50.838;7.214;2022-09-09T01:51:18;3.33;;;0.70;;
30398;SDS011;17195;50.838;7.214;2022-09-09T01:53:44;2.78;;;1.08;;
30398;SDS011;17195;50.838;7.214;2022-09-09T02:04:10;2.83;;;0.82;;
30398;SDS011;17195;50.838;7.214;2022-09-09T02:06:44;2.78;;;0.85;;
30398;SDS011;17195;50.838;7.214;2022-09-09T02:09:13;2.38;;;0.73;;
30398;SDS011;17195;50.838;7.214;2022-09-09T02:11:43;3.42;;;0.70;;
30398;SDS011;17195;50.838;7.214;2022-09-09T02:14:14;7.10;;;1.10;;
30398;SDS011;17195;50.838;7.214;2022-09-09T02:16:52;4.97;;;0.80;;
30398;SDS011;17195;50.838;7.214;2022-09-09T02:19:23;4.20;;;0.70;;
30398;SDS011;17195;50.838;7.214;2022-09-09T02:21:54;3.95;;;0.77;;
30398;SDS011;17195;50.838;7.214;2022-09-09T02:24:20;4.32;;;1.13;;
30398;SDS011;17195;50.838;7.214;2022-09-09T02:26:48;2.75;;;0.57;;
30398;SDS011;17195;50.838;7.214;2022-09-09T02:29:22;5.05;;;0.80;;
30398;SDS011;17195;50.838;7.214;2022-09-09T02:31:53;5.13;;;0.80;;
30398;SDS011;17195;50.838;7.214;2022-09-09T02:34:23;3.92;;;1.20;;
30398;SDS011;17195;50.838;7.214;2022-09-09T02:36:49;2.75;;;0.73;;
30398;SDS011;17195;50.838;7.214;2022-09-09T02:39:18;3.42;;;0.88;;
30398;SDS011;17195;50.838;7.214;2022-09-09T02:41:44;5.47;;;0.93;;
30398;SDS011;17195;50.838;7.214;2022-09-09T02:44:13;3.10;;;1.00;;
30398;SDS011;17195;50.838;7.214;2022-09-09T02:46:53;6.45;;;0.82;;
30398;SDS011;17195;50.838;7.214;2022-09-09T02:55:33;2.67;;;0.70;;
30398;SDS011;17195;50.838;7.214;2022-09-09T02:58:16;2.65;;;0.80;;
30398;SDS011;17195;50.838;7.214;2022-09-09T03:00:44;2.50;;;0.80;;
30398;SDS011;17195;50.838;7.214;2022-09-09T03:03:11;3.83;;;0.80;;
30398;SDS011;17195;50.838;7.214;2022-09-09T03:05:37;2.45;;;0.60;;
30398;SDS011;17195;50.838;7.214;2022-09-09T03:08:03;5.60;;;0.98;;
30398;SDS011;17195;50.838;7.214;2022-09-09T03:10:30;6.05;;;0.88;;
30398;SDS011;17195;50.838;7.214;2022-09-09T03:12:56;3.42;;;1.00;;
30398;SDS011;17195;50.838;7.214;2022-09-09T03:15:22;5.85;;;0.80;;
30398;SDS011;17195;50.838;7.214;2022-09-09T03:17:47;4.20;;;0.80;;
30398;SDS011;17195;50.838;7.214;2022-09-09T03:20:13;2.95;;;0.90;;
30398;SDS011;17195;50.838;7.214;2022-09-09T03:22:39;3.05;;;1.00;;
30398;SDS011;17195;50.838;7.214;2022-09-09T03:25:05;4.57;;;0.65;;
30398;SDS011;17195;50.838;7.214;2022-09-09T03:27:31;5.82;;;1.30;;
30398;SDS011;17195;50.838;7.214;2022-09-09T03:29:57;3.53;;;0.90;;
30398;SDS011;17195;50.838;7.214;2022-09-09T03:32:23;6.72;;;1.10;;
30398;SDS011;17195;50.838;7.214;2022-09-09T03:34:50;3.70;;;0.82;;
30398;SDS011;17195;50.838;7.214;2022-09-09T03:37:17;5.32;;;1.40;;
30398;SDS011;17195;50.838;7.214;2022-09-09T03:39:44;2.78;;;1.00;;
30398;SDS011;17195;50.838;7.214;2022-09-09T03:42:11;6.07;;;1.20;;
30398;SDS011;17195;50.838;7.214;2022-09-09T03:44:39;5.63;;;1.38;;
30398;SDS011;17195;50.838;7.214;2022-09-09T03:47:05;3.70;;;0.90;;
30398;SDS011;17195;50.838;7.214;2022-09-09T03:49:31;7.03;;;0.88;;
30398;SDS011;17195;50.838;7.214;2022-09-09T03:51:56;7.55;;;1.13;;
30398;SDS011;17195;50.838;7.214;2022-09-09T03:54:23;6.15;;;0.82;;
30398;SDS011;17195;50.838;7.214;2022-09-09T03:56:50;6.50;;;0.98;;
30398;SDS011;17195;50.838;7.214;2022-09-09T03:59:15;3.17;;;0.60;;
30398;SDS011;17195;50.838;7.214;2022-09-09T04:01:41;5.18;;;1.02;;
30398;SDS011;17195;50.838;7.214;2022-09-09T04:04:06;6.07;;;1.17;;
30398;SDS011;17195;50.838;7.214;2022-09-09T04:06:32;4.50;;;0.80;;
30398;SDS011;17195;50.838;7.214;2022-09-09T04:08:58;3.63;;;0.90;;
30398;SDS011;17195;50.838;7.214;2022-09-09T04:11:24;4.40;;;0.90;;
30398;SDS011;17195;50.838;7.214;2022-09-09T04:13:50;4.97;;;1.35;;
30398;SDS011;17195;50.838;7.214;2022-09-09T04:16:15;5.78;;;0.80;;
30398;SDS011;17195;50.838;7.214;2022-09-09T04:18:41;2.72;;;0.68;;
30398;SDS011;17195;50.838;7.214;2022-09-09T04:21:07;4.47;;;0.80;;
30398;SDS011;17195;50.838;7.214;2022-09-09T04:23:35;4.07;;;0.80;;
30398;SDS011;17195;50.838;7.214;2022-09-09T04:26:01;5.93;;;0.82;;
30398;SDS011;17195;50.838;7.214;2022-09-09T04:28:28;5.90;;;1.10;;
30398;SDS011;17195;50.838;7.214;2022-09-09T04:30:55;4.45;;;1.00;;
30398;SDS011;17195;50.838;7.214;2022-09-09T04:33:24;7.22;;;1.20;;
30398;SDS011;17195;50.838;7.214;2022-09-09T04:35:51;4.47;;;0.95;;
30398;SDS011;17195;50.838;7.214;2022-09-09T04:38:19;3.60;;;0.82;;
30398;SDS011;17195;50.838;7.214;2022-09-09T04:40:48;8.23;;;1.65;;
30398;SDS011;17195;50.838;7.214;2022-09-09T04:43:14;6.53;;;1.23;;
30398;SDS011;17195;50.838;7.214;2022-09-09T04:45:41;2.15;;;0.80;;
30398;SDS011;17195;50.838;7.214;2022-09-09T04:48:07;4.63;;;1.00;;
30398;SDS011;17195;50.838;7.214;2022-09-09T04:50:34;4.65;;;1.20;;
30398;SDS011;17195;50.838;7.214;2022-09-09T04:53:00;4.47;;;1.40;;
30398;SDS011;17195;50.838;7.214;2022-09-09T04:55:27;4.53;;;1.13;;
30398;SDS011;17195;50.838;7.214;2022-09-09T04:57:52;4.07;;;0.88;;
30398;SDS011;17195;50.838;7.214;2022-09-09T05:00:18;5.95;;;1.13;;
30398;SDS011;17195;50.838;7.214;2022-09-09T05:02:44;5.00;;;1.08;;
30398;SDS011;17195;50.838;7.214;2022-09-09T05:05:10;3.75;;;1.10;;
30398;SDS011;17195;50.838;7.214;2022-09-09T05:07:36;5.00;;;0.80;;
30398;SDS011;17195;50.838;7.214;2022-09-09T05:10:02;5.07;;;0.82;;
30398;SDS011;17195;50.838;7.214;2022-09-09T05:12:30;11.05;;;1.30;;
30398;SDS011;17195;50.838;7.214;2022-09-09T05:14:56;3.08;;;1.23;;
30398;SDS011;17195;50.838;7.214;2022-09-09T05:17:23;4.78;;;1.00;;
30398;SDS011;17195;50.838;7.214;2022-09-09T05:19:48;5.95;;;1.92;;
30398;SDS011;17195;50.838;7.214;2022-09-09T05:22:18;10.50;;;3.67;;
30398;SDS011;17195;50.838;7.214;2022-09-09T05:24:49;5.00;;;1.33;;
30398;SDS011;17195;50.838;7.214;2022-09-09T05:27:16;4.63;;;1.08;;
30398;SDS011;17195;50.838;7.214;2022-09-09T05:29:44;4.88;;;1.00;;
30398;SDS011;17195;50.838;7.214;2022-09-09T05:32:10;3.88;;;1.35;;
30398;SDS011;17195;50.838;7.214;2022-09-09T05:34:35;10.30;;;1.58;;
30398;SDS011;17195;50.838;7.214;2022-09-09T05:37:02;5.63;;;0.85;;
30398;SDS011;17195;50.838;7.214;2022-09-09T05:39:29;4.10;;;0.98;;
30398;SDS011;17195;50.838;7.214;2022-09-09T05:41:55;4.72;;;1.25;;
30398;SDS011;17195;50.838;7.214;2022-09-09T05:44:20;8.95;;;1.70;;
30398;SDS011;17195;50.838;7.214;2022-09-09T05:46:48;5.68;;;1.10;;
30398;SDS011;17195;50.838;7.214;2022-09-09T05:49:14;8.98;;;2.10;;
30398;SDS011;17195;50.838;7.214;2022-09-09T05:51:40;4.70;;;1.55;;
30398;SDS011;17195;50.838;7.214;2022-09-09T05:54:07;2.08;;;0.88;;
30398;SDS011;17195;50.838;7.214;2022-09-09T05:56:33;7.50;;;1.50;;
30398;SDS011;17195;50.838;7.214;2022-09-09T05:58:59;3.33;;;0.98;;
30398;SDS011;17195;50.838;7.214;2022-09-09T06:01:26;3.10;;;1.08;;
30398;SDS011;17195;50.838;7.214;2022-09-09T06:03:54;7.95;;;1.10;;
30398;SDS011;17195;50.838;7.214;2022-09-09T06:06:23;1.63;;;0.60;;
30398;SDS011;17195;50.838;7.214;2022-09-09T06:08:51;3.58;;;1.13;;
30398;SDS011;17195;50.838;7.214;2022-09-09T06:11:19;8.43;;;1.40;;
30398;SDS011;17195;50.838;7.214;2022-09-09T06:13:46;6.63;;;0.95;;
30398;SDS011;17195;50.838;7.214;2022-09-09T06:16:13;4.65;;;1.30;;
30398;SDS011;17195;50.838;7.214;2022-09-09T06:18:40;4.28;;;1.08;;
30398;SDS011;17195;50.838;7.214;2022-09-09T06:21:08;4.47;;;1.02;;
30398;SDS011;17195;50.838;7.214;2022-09-09T06:23:39;5.00;;;1.10;;
30398;SDS011;17195;50.838;7.214;2022-09-09T06:26:07;5.97;;;1.40;;
30398;SDS011;17195;50.838;7.214;2022-09-09T06:28:35;3.47;;;1.30;;
30398;SDS011;17195;50.838;7.214;2022-09-09T06:31:02;4.68;;;1.40;;
30398;SDS011;17195;50.838;7.214;2022-09-09T06:33:33;9.20;;;1.50;;
30398;SDS011;17195;50.838;7.214;2022-09-09T06:36:00;1.75;;;0.65;;
30398;SDS011;17195;50.838;7.214;2022-09-09T06:38:27;5.80;;;0.80;;
30398;SDS011;17195;50.838;7.214;2022-09-09T06:40:56;3.83;;;0.90;;
30398;SDS011;17195;50.838;7.214;2022-09-09T06:43:23;3.67;;;1.00;;
30398;SDS011;17195;50.838;7.214;2022-09-09T06:45:53;5.53;;;1.02;;
30398;SDS011;17195;50.838;7.214;2022-09-09T06:48:22;5.10;;;1.08;;
30398;SDS011;17195;50.838;7.214;2022-09-09T06:50:47;2.33;;;0.75;;
30398;SDS011;17195;50.838;7.214;2022-09-09T06:53:17;6.70;;;0.90;;
30398;SDS011;17195;50.838;7.214;2022-09-09T06:55:46;4.88;;;1.13;;
30398;SDS011;17195;50.838;7.214;2022-09-09T06:58:12;3.92;;;1.20;;
30398;SDS011;17195;50.838;7.214;2022-09-09T07:00:38;4.68;;;1.20;;
30398;SDS011;17195;50.838;7.214;2022-09-09T07:03:04;7.22;;;1.15;;
30398;SDS011;17195;50.838;7.214;2022-09-09T07:05:31;3.83;;;0.80;;
30398;SDS011;17195;50.838;7.214;2022-09-09T07:07:56;2.85;;;0.80;;
30398;SDS011;17195;50.838;7.214;2022-09-09T07:10:22;3.75;;;0.85;;
30398;SDS011;17195;50.838;7.214;2022-09-09T07:12:51;5.43;;;0.95;;
30398;SDS011;17195;50.838;7.214;2022-09-09T07:15:18;5.00;;;1.25;;
30398;SDS011;17195;50.838;7.214;2022-09-09T07:17:43;3.80;;;0.80;;
30398;SDS011;17195;50.838;7.214;2022-09-09T07:20:09;3.70;;;0.70;;
30398;SDS011;17195;50.838;7.214;2022-09-09T07:22:35;3.88;;;0.90;;
30398;SDS011;17195;50.838;7.214;2022-09-09T07:25:01;5.88;;;1.05;;
30398;SDS011;17195;50.838;7.214;2022-09-09T07:27:27;4.35;;;0.80;;
30398;SDS011;17195;50.838;7.214;2022-09-09T07:29:52;3.08;;;0.73;;
30398;SDS011;17195;50.838;7.214;2022-09-09T07:32:19;3.88;;;0.73;;
30398;SDS011;17195;50.838;7.214;2022-09-09T07:34:45;6.70;;;1.27;;
30398;SDS011;17195;50.838;7.214;2022-09-09T07:37:12;4.78;;;1.20;;
30398;SDS011;17195;50.838;7.214;2022-09-09T07:39:38;5.70;;;1.10;;
30398;SDS011;17195;50.838;7.214;2022-09-09T07:42:04;5.57;;;0.90;;
30398;SDS011;17195;50.838;7.214;2022-09-09T07:44:30;7.05;;;0.90;;
30398;SDS011;17195;50.838;7.214;2022-09-09T07:46:59;7.47;;;1.05;;
30398;SDS011;17195;50.838;7.214;2022-09-09T07:49:26;8.55;;;1.05;;
30398;SDS011;17195;50.838;7.214;2022-09-09T07:51:52;8.68;;;1.48;;
30398;SDS011;17195;50.838;7.214;2022-09-09T07:54:18;3.65;;;0.70;;
30398;SDS011;17195;50.838;7.214;2022-09-09T07:56:45;4.95;;;0.90;;
30398;SDS011;17195;50.838;7.214;2022-09-09T07:59:11;3.38;;;0.80;;
30398;SDS011;17195;50.838;7.214;2022-09-09T08:01:38;7.20;;;1.42;;
30398;SDS011;17195;50.838;7.214;2022-09-09T08:04:06;7.97;;;1.30;;
30398;SDS011;17195;50.838;7.214;2022-09-09T08:06:37;4.85;;;1.15;;
30398;SDS011;17195;50.838;7.214;2022-09-09T08:09:04;4.85;;;0.90;;
30398;SDS011;17195;50.838;7.214;2022-09-09T08:11:31;6.10;;;1.35;;
30398;SDS011;17195;50.838;7.214;2022-09-09T08:13:58;7.10;;;1.27;;
30398;SDS011;17195;50.838;7.214;2022-09-09T08:16:27;6.13;;;1.60;;
30398;SDS011;17195;50.838;7.214;2022-09-09T08:18:55;6.20;;;1.50;;
30398;SDS011;17195;50.838;7.214;2022-09-09T08:21:22;5.13;;;1.08;;
30398;SDS011;17195;50.838;7.214;2022-09-09T08:23:50;8.25;;;1.38;;
30398;SDS011;17195;50.838;7.214;2022-09-09T08:28:47;5.93;;;1.23;;
30398;SDS011;17195;50.838;7.214;2022-09-09T08:31:18;5.40;;;1.20;;
30398;SDS011;17195;50.838;7.214;2022-09-09T08:33:46;4.18;;;0.75;;
30398;SDS011;17195;50.838;7.214;2022-09-09T08:36:13;6.95;;;1.23;;
30398;SDS011;17195;50.838;7.214;2022-09-09T08:38:40;2.80;;;1.05;;
30398;SDS011;17195;50.838;7.214;2022-09-09T08:52:19;7.18;;;1.58;;
30398;SDS011;17195;50.838;7.214;2022-09-09T08:54:52;5.95;;;1.33;;
30398;SDS011;17195;50.838;7.214;2022-09-09T08:57:23;4.97;;;1.10;;
30398;SDS011;17195;50.838;7.214;2022-09-09T08:59:52;5.97;;;0.98;;
30398;SDS011;17195;50.838;7.214;2022-09-09T09:02:32;5.63;;;1.00;;
30398;SDS011;17195;50.838;7.214;2022-09-09T09:07:59;3.83;;;0.82;;
30398;SDS011;17195;50.838;7.214;2022-09-09T09:10:51;6.60;;;1.17;;
30398;SDS011;17195;50.838;7.214;2022-09-09T09:15:52;3.92;;;0.70;;
30398;SDS011;17195;50.838;7.214;2022-09-09T09:18:23;5.57;;;0.93;;
30398;SDS011;17195;50.838;7.214;2022-09-09T09:20:51;4.70;;;0.88;;
30398;SDS011;17195;50.838;7.214;2022-09-09T09:23:24;6.30;;;1.10;;
30398;SDS011;17195;50.838;7.214;2022-09-09T09:25:52;5.20;;;0.80;;
30398;SDS011;17195;50.838;7.214;2022-09-09T09:28:24;6.80;;;0.75;;
30398;SDS011;17195;50.838;7.214;2022-09-09T09:30:58;6.93;;;1.35;;
30398;SDS011;17195;50.838;7.214;2022-09-09T09:35:59;3.35;;;0.80;;
30398;SDS011;17195;50.838;7.214;2022-09-09T09:38:25;2.08;;;0.60;;
30398;SDS011;17195;50.838;7.214;2022-09-09T09:40:53;2.60;;;0.60;;
30398;SDS011;17195;50.838;7.214;2022-09-09T09:43:24;2.25;;;0.50;;
30398;SDS011;17195;50.838;7.214;2022-09-09T09:45:59;2.10;;;0.50;;
30398;SDS011;17195;50.838;7.214;2022-09-09T09:48:28;6.20;;;0.88;;
30398;SDS011;17195;50.838;7.214;2022-09-09T09:50:54;2.95;;;0.75;;
30398;SDS011;17195;50.838;7.214;2022-09-09T09:53:32;3.38;;;0.80;;
30398;SDS011;17195;50.838;7.214;2022-09-09T09:58:25;4.47;;;0.68;;
30398;SDS011;17195;50.838;7.214;2022-09-09T10:00:53;4.95;;;0.70;;
30398;SDS011;17195;50.838;7.214;2022-09-09T10:05:54;2.17;;;0.68;;
30398;SDS011;17195;50.838;7.214;2022-09-09T10:08:26;3.05;;;0.60;;
30398;SDS011;17195;50.838;7.214;2022-09-09T10:16:52;5.95;;;0.63;;
30398;SDS011;17195;50.838;7.214;2022-09-09T10:19:33;3.80;;;0.90;;
30398;SDS011;17195;50.838;7.214;2022-09-09T10:27:33;5.72;;;0.93;;
30398;SDS011;17195;50.838;7.214;2022-09-09T10:32:48;3.30;;;0.70;;
30398;SDS011;17195;50.838;7.214;2022-09-09T10:35:30;5.70;;;1.20;;
30398;SDS011;17195;50.838;7.214;2022-09-09T10:38:16;3.90;;;0.75;;
30398;SDS011;17195;50.838;7.214;2022-09-09T10:56:41;4.68;;;0.65;;
30398;SDS011;17195;50.838;7.214;2022-09-09T10:59:11;6.13;;;0.90;;
30398;SDS011;17195;50.838;7.214;2022-09-09T11:01:47;4.70;;;0.80;;
30398;SDS011;17195;50.838;7.214;2022-09-09T11:04:24;5.60;;;1.30;;
30398;SDS011;17195;50.838;7.214;2022-09-09T11:06:59;3.67;;;0.75;;
30398;SDS011;17195;50.838;7.214;2022-09-09T11:09:32;4.40;;;0.90;;
30398;SDS011;17195;50.838;7.214;2022-09-09T11:12:02;2.53;;;0.43;;
30398;SDS011;17195;50.838;7.214;2022-09-09T11:14:33;5.65;;;1.00;;
30398;SDS011;17195;50.838;7.214;2022-09-09T11:17:26;2.85;;;0.80;;
30398;SDS011;17195;50.838;7.214;2022-09-09T11:20:00;2.95;;;0.93;;
30398;SDS011;17195;50.838;7.214;2022-09-09T11:22:33;4.35;;;1.17;;
30398;SDS011;17195;50.838;7.214;2022-09-09T11:38:53;2.80;;;0.57;;
30398;SDS011;17195;50.838;7.214;2022-09-09T11:41:33;4.82;;;0.80;;
30398;SDS011;17195;50.838;7.214;2022-09-09T11:44:09;1.88;;;0.47;;
30398;SDS011;17195;50.838;7.214;2022-09-09T11:46:45;4.07;;;0.60;;
30398;SDS011;17195;50.838;7.214;2022-09-09T11:49:25;2.40;;;0.60;;
30398;SDS011;17195;50.838;7.214;2022-09-09T11:52:11;3.53;;;0.70;;
30398;SDS011;17195;50.838;7.214;2022-09-09T11:54:48;1.55;;;0.30;;
30398;SDS011;17195;50.838;7.214;2022-09-09T11:57:35;2.78;;;0.60;;
30398;SDS011;17195;50.838;7.214;2022-09-09T12:00:01;2.08;;;0.50;;
30398;SDS011;17195;50.838;7.214;2022-09-09T12:02:28;3.35;;;0.50;;
30398;SDS011;17195;50.838;7.214;2022-09-09T12:05:02;3.42;;;0.70;;
30398;SDS011;17195;50.838;7.214;2022-09-09T12:07:40;3.97;;;0.77;;
30398;SDS011;17195;50.838;7.214;2022-09-09T12:15:48;1.50;;;0.45;;
30398;SDS011;17195;50.838;7.214;2022-09-09T12:18:25;3.00;;;0.50;;
30398;SDS011;17195;50.838;7.214;2022-09-09T12:21:04;1.83;;;0.50;;
30398;SDS011;17195;50.838;7.214;2022-09-09T12:23:43;3.08;;;0.70;;
30398;SDS011;17195;50.838;7.214;2022-09-09T12:29:14;4.13;;;0.68;;
30398;SDS011;17195;50.838;7.214;2022-09-09T12:32:07;3.20;;;0.82;;
30398;SDS011;17195;50.838;7.214;2022-09-09T12:34:40;2.53;;;0.85;;
30398;SDS011;17195;50.838;7.214;2022-09-09T12:40:00;2.20;;;0.63;;
30398;SDS011;17195;50.838;7.214;2022-09-09T12:42:28;2.83;;;0.85;;
30398;SDS011;17195;50.838;7.214;2022-09-09T12:44:58;2.88;;;0.60;;
30398;SDS011;17195;50.838;7.214;2022-09-09T12:48:10;3.55;;;0.88;;
30398;SDS011;17195;50.838;7.214;2022-09-09T12:50:23;3.75;;;0.65;;
30398;SDS011;17195;50.838;7.214;2022-09-09T12:52:56;2.40;;;0.60;;
30398;SDS011;17195;50.838;7.214;2022-09-09T12:55:36;2.92;;;0.77;;
30398;SDS011;17195;50.838;7.214;2022-09-09T12:58:05;3.45;;;0.65;;
30398;SDS011;17195;50.838;7.214;2022-09-09T13:00:31;2.67;;;0.52;;
30398;SDS011;17195;50.838;7.214;2022-09-09T13:03:00;4.10;;;0.52;;
30398;SDS011;17195;50.838;7.214;2022-09-09T13:05:27;4.88;;;0.90;;
30398;SDS011;17195;50.838;7.214;2022-09-09T13:08:02;2.22;;;0.70;;
30398;SDS011;17195;50.838;7.214;2022-09-09T13:10:46;2.13;;;0.60;;
30398;SDS011;17195;50.838;7.214;2022-09-09T13:13:18;2.53;;;0.80;;
30398;SDS011;17195;50.838;7.214;2022-09-09T13:15:53;3.58;;;0.77;;
30398;SDS011;17195;50.838;7.214;2022-09-09T13:18:22;2.77;;;0.67;;
30398;SDS011;17195;50.838;7.214;2022-09-09T13:20:51;2.97;;;0.60;;
30398;SDS011;17195;50.838;7.214;2022-09-09T13:23:18;3.03;;;0.70;;
30398;SDS011;17195;50.838;7.214;2022-09-09T13:25:56;5.20;;;0.82;;
30398;SDS011;17195;50.838;7.214;2022-09-09T13:28:24;3.53;;;0.77;;
30398;SDS011;17195;50.838;7.214;2022-09-09T13:30:59;4.78;;;0.98;;
30398;SDS011;17195;50.838;7.214;2022-09-09T13:33:39;2.17;;;0.65;;
30398;SDS011;17195;50.838;7.214;2022-09-09T13:38:36;5.28;;;0.65;;
30398;SDS011;17195;50.838;7.214;2022-09-09T13:41:06;3.65;;;0.50;;
30398;SDS011;17195;50.838;7.214;2022-09-09T13:43:37;3.90;;;0.52;;
30398;SDS011;17195;50.838;7.214;2022-09-09T13:49:17;1.98;;;0.50;;
30398;SDS011;17195;50.838;7.214;2022-09-09T13:51:48;3.50;;;0.90;;
30398;SDS011;17195;50.838;7.214;2022-09-09T13:54:16;3.67;;;0.70;;
30398;SDS011;17195;50.838;7.214;2022-09-09T13:56:44;6.55;;;0.70;;
30398;SDS011;17195;50.838;7.214;2022-09-09T13:59:14;2.72;;;0.52;;
30398;SDS011;17195;50.838;7.214;2022-09-09T14:01:42;4.13;;;0.60;;
30398;SDS011;17195;50.838;7.214;2022-09-09T14:04:08;1.88;;;0.70;;
30398;SDS011;17195;50.838;7.214;2022-09-09T14:06:35;3.28;;;0.60;;
30398;SDS011;17195;50.838;7.214;2022-09-09T14:09:05;3.53;;;0.70;;
30398;SDS011;17195;50.838;7.214;2022-09-09T14:11:32;1.55;;;0.38;;
30398;SDS011;17195;50.838;7.214;2022-09-09T14:13:58;3.58;;;0.50;;
30398;SDS011;17195;50.838;7.214;2022-09-09T14:16:23;2.97;;;0.50;;
30398;SDS011;17195;50.838;7.214;2022-09-09T14:18:52;1.70;;;0.43;;
30398;SDS011;17195;50.838;7.214;2022-09-09T14:21:17;2.17;;;0.55;;
30398;SDS011;17195;50.838;7.214;2022-09-09T14:23:43;1.65;;;0.40;;
30398;SDS011;17195;50.838;7.214;2022-09-09T14:26:08;5.00;;;1.13;;
30398;SDS011;17195;50.838;7.214;2022-09-09T14:28:35;0.93;;;0.50;;
30398;SDS011;17195;50.838;7.214;2022-09-09T14:31:02;2.97;;;0.50;;
30398;SDS011;17195;50.838;7.214;2022-09-09T14:33:29;2.70;;;0.70;;
30398;SDS011;17195;50.838;7.214;2022-09-09T14:35:56;2.05;;;0.60;;
30398;SDS011;17195;50.838;7.214;2022-09-09T14:38:22;2.20;;;0.85;;
30398;SDS011;17195;50.838;7.214;2022-09-09T14:40:48;1.95;;;0.40;;
30398;SDS011;17195;50.838;7.214;2022-09-09T14:43:13;1.75;;;0.40;;
30398;SDS011;17195;50.838;7.214;2022-09-09T14:45:39;2.05;;;0.60;;
30398;SDS011;17195;50.838;7.214;2022-09-09T14:48:05;2.72;;;0.30;;
30398;SDS011;17195;50.838;7.214;2022-09-09T14:50:30;0.65;;;0.30;;
30398;SDS011;17195;50.838;7.214;2022-09-09T14:52:56;1.05;;;0.30;;
30398;SDS011;17195;50.838;7.214;2022-09-09T14:55:21;1.23;;;0.40;;
30398;SDS011;17195;50.838;7.214;2022-09-09T14:57:47;1.63;;;0.32;;
30398;SDS011;17195;50.838;7.214;2022-09-09T15:00:13;1.20;;;0.35;;
30398;SDS011;17195;50.838;7.214;2022-09-09T15:02:38;0.82;;;0.30;;
30398;SDS011;17195;50.838;7.214;2022-09-09T15:05:04;2.47;;;0.38;;
30398;SDS011;17195;50.838;7.214;2022-09-09T15:07:30;3.05;;;0.40;;
30398;SDS011;17195;50.838;7.214;2022-09-09T15:09:56;1.65;;;0.50;;
30398;SDS011;17195;50.838;7.214;2022-09-09T15:12:23;1.80;;;0.60;;
30398;SDS011;17195;50.838;7.214;2022-09-09T15:14:49;1.13;;;0.40;;
30398;SDS011;17195;50.838;7.214;2022-09-09T15:17:15;2.10;;;0.40;;
30398;SDS011;17195;50.838;7.214;2022-09-09T15:19:41;1.98;;;0.50;;
30398;SDS011;17195;50.838;7.214;2022-09-09T15:22:07;1.90;;;0.40;;
30398;SDS011;17195;50.838;7.214;2022-09-09T15:24:33;2.40;;;0.40;;
30398;SDS011;17195;50.838;7.214;2022-09-09T15:27:00;0.95;;;0.40;;
30398;SDS011;17195;50.838;7.214;2022-09-09T15:29:26;0.93;;;0.40;;
30398;SDS011;17195;50.838;7.214;2022-09-09T15:31:53;2.38;;;0.47;;
30398;SDS011;17195;50.838;7.214;2022-09-09T15:34:19;1.52;;;0.47;;
30398;SDS011;17195;50.838;7.214;2022-09-09T15:36:45;1.23;;;0.47;;
30398;SDS011;17195;50.838;7.214;2022-09-09T15:39:15;6.18;;;0.73;;
30398;SDS011;17195;50.838;7.214;2022-09-09T15:41:42;3.65;;;0.77;;
30398;SDS011;17195;50.838;7.214;2022-09-09T15:44:09;6.07;;;1.20;;
30398;SDS011;17195;50.838;7.214;2022-09-09T15:46:38;11.77;;;2.10;;
30398;SDS011;17195;50.838;7.214;2022-09-09T15:49:09;6.32;;;1.27;;
30398;SDS011;17195;50.838;7.214;2022-09-09T15:51:46;6.10;;;0.90;;
30398;SDS011;17195;50.838;7.214;2022-09-09T15:54:16;3.35;;;0.82;;
30398;SDS011;17195;50.838;7.214;2022-09-09T15:56:43;5.18;;;1.00;;
30398;SDS011;17195;50.838;7.214;2022-09-09T15:59:10;4.28;;;0.90;;
30398;SDS011;17195;50.838;7.214;2022-09-09T16:01:36;5.05;;;1.42;;
30398;SDS011;17195;50.838;7.214;2022-09-09T16:04:04;4.78;;;1.45;;
30398;SDS011;17195;50.838;7.214;2022-09-09T16:06:30;6.80;;;1.98;;
30398;SDS011;17195;50.838;7.214;2022-09-09T16:08:56;5.20;;;1.70;;
30398;SDS011;17195;50.838;7.214;2022-09-09T16:11:32;4.95;;;1.80;;
30398;SDS011;17195;50.838;7.214;2022-09-09T16:14:01;4.50;;;1.30;;
30398;SDS011;17195;50.838;7.214;2022-09-09T16:16:28;4.35;;;1.17;;
30398;SDS011;17195;50.838;7.214;2022-09-09T16:18:56;5.88;;;1.73;;
30398;SDS011;17195;50.838;7.214;2022-09-09T16:21:24;7.97;;;1.90;;
30398;SDS011;17195;50.838;7.214;2022-09-09T16:23:54;6.80;;;1.75;;
30398;SDS011;17195;50.838;7.214;2022-09-09T16:26:20;6.00;;;2.10;;
30398;SDS011;17195;50.838;7.214;2022-09-09T16:28:47;5.43;;;1.95;;
30398;SDS011;17195;50.838;7.214;2022-09-09T16:31:14;5.18;;;2.17;;
30398;SDS011;17195;50.838;7.214;2022-09-09T16:33:43;3.10;;;1.90;;
30398;SDS011;17195;50.838;7.214;2022-09-09T16:36:10;6.45;;;1.60;;
30398;SDS011;17195;50.838;7.214;2022-09-09T16:38:37;5.75;;;1.85;;
30398;SDS011;17195;50.838;7.214;2022-09-09T16:41:04;6.03;;;1.75;;
30398;SDS011;17195;50.838;7.214;2022-09-09T16:43:30;5.03;;;1.90;;
30398;SDS011;17195;50.838;7.214;2022-09-09T16:46:00;6.28;;;1.83;;
30398;SDS011;17195;50.838;7.214;2022-09-09T16:48:33;6.93;;;2.00;;
30398;SDS011;17195;50.838;7.214;2022-09-09T16:51:03;3.95;;;1.70;;
30398;SDS011;17195;50.838;7.214;2022-09-09T16:53:36;5.88;;;1.52;;
30398;SDS011;17195;50.838;7.214;2022-09-09T16:56:05;6.03;;;1.55;;
30398;SDS011;17195;50.838;7.214;2022-09-09T16:58:31;4.93;;;1.48;;
30398;SDS011;17195;50.838;7.214;2022-09-09T17:00:58;4.60;;;2.03;;
30398;SDS011;17195;50.838;7.214;2022-09-09T17:03:24;6.82;;;1.80;;
30398;SDS011;17195;50.838;7.214;2022-09-09T17:05:49;4.82;;;1.80;;
30398;SDS011;17195;50.838;7.214;2022-09-09T17:08:15;5.82;;;2.00;;
30398;SDS011;17195;50.838;7.214;2022-09-09T17:10:41;4.88;;;1.98;;
30398;SDS011;17195;50.838;7.214;2022-09-09T17:13:07;6.05;;;2.30;;
30398;SDS011;17195;50.838;7.214;2022-09-09T17:15:33;9.38;;;3.83;;
30398;SDS011;17195;50.838;7.214;2022-09-09T17:17:59;5.03;;;2.28;;